createdAt,value
2023-04-19T00:02:18.537Z,12.34
2023-04-19T00:05:22.613Z,12.37
2023-04-19T00:08:25.858Z,12.39
2023-04-19T00:11:29.820Z,12.43
2023-04-19T00:14:32.492Z,12.35
2023-04-19T00:17:35.558Z,12.32
2023-04-19T00:20:39.652Z,12.31
2023-04-19T00:23:42.300Z,12.32
2023-04-19T00:26:46.234Z,12.22
2023-04-19T00:29:48.806Z,12.26
2023-04-19T00:32:51.359Z,12.25
2023-04-19T00:35:53.989Z,12.22
2023-04-19T00:38:56.603Z,12.06
2023-04-19T00:42:01.283Z,12.17
2023-04-19T00:45:03.984Z,12.13
2023-04-19T00:48:07.012Z,12.17
2023-04-19T00:51:10.670Z,12.06
2023-04-19T00:54:13.708Z,12.17
2023-04-19T00:57:17.802Z,12.14
2023-04-19T01:00:20.909Z,12.07
2023-04-19T01:03:23.559Z,12.09
2023-04-19T01:06:27.852Z,12.12
2023-04-19T01:09:30.937Z,12.14
2023-04-19T01:12:34.998Z,12.14
2023-04-19T01:15:41.083Z,12.13
2023-04-19T01:18:43.583Z,12.10
2023-04-19T01:21:46.312Z,12.09
2023-04-19T01:24:50.350Z,12.01
2023-04-19T01:27:52.820Z,12.11
2023-04-19T01:30:55.443Z,12.01
2023-04-19T01:33:58.110Z,11.95
2023-04-19T01:37:00.881Z,12.07
2023-04-19T01:40:05.474Z,11.96
2023-04-19T01:43:08.292Z,12.01
2023-04-19T01:46:10.881Z,11.96
2023-04-19T01:49:13.460Z,11.96
2023-04-19T01:52:16.016Z,11.95
2023-04-19T01:55:20.185Z,11.90
2023-04-19T01:58:22.696Z,11.94
2023-04-19T02:01:25.583Z,11.92
2023-04-19T02:04:28.170Z,11.88
2023-04-19T02:07:30.680Z,11.77
2023-04-19T02:10:34.631Z,11.82
2023-04-19T02:13:37.286Z,11.77
2023-04-19T02:16:39.820Z,11.76
2023-04-19T02:19:42.525Z,11.75
2023-04-19T02:22:45.111Z,11.73
2023-04-19T02:25:48.989Z,11.69
2023-04-19T02:28:51.995Z,11.65
2023-04-19T02:31:54.565Z,11.64
2023-04-19T02:34:57.119Z,11.66
2023-04-19T02:38:00.270Z,11.72
2023-04-19T02:41:04.467Z,11.71
2023-04-19T02:44:07.203Z,11.63
2023-04-19T02:47:09.748Z,11.58
2023-04-19T02:50:12.275Z,11.56
2023-04-19T02:53:14.814Z,11.58
2023-04-19T02:56:18.843Z,11.56
2023-04-19T02:59:21.425Z,11.61
2023-04-19T03:02:24.409Z,11.52
2023-04-19T03:05:27.637Z,11.50
2023-04-19T03:08:30.530Z,11.45
2023-04-19T03:11:35.716Z,11.35
2023-04-19T03:14:38.482Z,11.42
2023-04-19T03:17:41.178Z,11.41
2023-04-19T03:20:43.863Z,11.41
2023-04-19T03:23:46.387Z,11.38
2023-04-19T03:26:50.516Z,11.48
2023-04-19T03:29:53.343Z,11.54
2023-04-19T03:32:55.909Z,11.55
2023-04-19T03:35:58.464Z,11.39
2023-04-19T03:39:00.979Z,11.38
2023-04-19T03:42:05.240Z,11.26
2023-04-19T03:45:08.614Z,11.20
2023-04-19T03:48:11.241Z,11.11
2023-04-19T03:51:15.854Z,10.93
2023-04-19T03:54:18.366Z,10.85
2023-04-19T03:57:22.426Z,10.87
2023-04-19T04:00:26.299Z,10.87
2023-04-19T04:03:28.984Z,10.80
2023-04-19T04:06:32.232Z,10.77
2023-04-19T04:09:35.044Z,10.74
2023-04-19T04:12:38.989Z,10.69
2023-04-19T04:15:42.924Z,10.45
2023-04-19T04:18:45.555Z,10.25
2023-04-19T04:21:49.155Z,10.21
2023-04-19T04:24:53.957Z,10.30
2023-04-19T04:27:57.980Z,10.47
2023-04-19T04:31:00.688Z,10.62
2023-04-19T04:34:03.471Z,10.51
2023-04-19T04:37:07.628Z,10.45
2023-04-19T04:40:11.657Z,10.33
2023-04-19T04:43:15.550Z,10.34
2023-04-19T04:46:18.338Z,10.24
2023-04-19T04:49:21.026Z,10.20
2023-04-19T04:52:23.655Z,10.34
2023-04-19T04:55:26.297Z,10.60
2023-04-19T04:58:30.404Z,10.79
2023-04-19T05:01:33.058Z,10.96
2023-04-19T05:04:35.859Z,11.09
2023-04-19T05:07:38.546Z,11.20
2023-04-19T05:10:41.199Z,11.27
2023-04-19T05:13:45.364Z,11.40
2023-04-19T05:16:48.128Z,11.37
2023-04-19T05:19:51.035Z,11.26
2023-04-19T05:22:58.287Z,11.33
2023-04-19T05:26:00.832Z,11.32
2023-04-19T05:29:04.944Z,11.26
2023-04-19T05:32:08.029Z,11.41
2023-04-19T05:35:11.449Z,11.47
2023-04-19T05:38:14.116Z,11.60
2023-04-19T05:41:16.932Z,11.68
2023-04-19T05:44:21.096Z,11.71
2023-04-19T05:47:24.171Z,11.73
2023-04-19T05:50:27.173Z,11.93
2023-04-19T05:53:29.782Z,12.01
2023-04-19T05:56:32.623Z,12.17
2023-04-19T05:59:36.718Z,12.00
2023-04-19T06:02:39.521Z,11.87
2023-04-19T06:05:42.565Z,11.91
2023-04-19T06:08:45.265Z,12.23
2023-04-19T06:11:51.170Z,12.40
2023-04-19T06:14:56.072Z,12.32
2023-04-19T06:17:59.984Z,12.39
2023-04-19T06:21:02.693Z,12.68
2023-04-19T06:24:06.894Z,12.94
2023-04-19T06:27:09.499Z,13.24
2023-04-19T06:30:14.030Z,13.15
2023-04-19T06:33:16.692Z,12.95
2023-04-19T06:36:19.470Z,13.12
2023-04-19T06:39:22.197Z,13.18
2023-04-19T06:42:25.942Z,12.96
2023-04-19T06:45:30.004Z,13.18
2023-04-19T06:48:32.877Z,13.27
2023-04-19T06:51:36.011Z,13.32
2023-04-19T06:54:38.852Z,13.78
2023-04-19T06:57:42.486Z,13.72
2023-04-19T07:00:46.395Z,14.26
2023-04-19T07:03:49.159Z,14.57
2023-04-19T07:06:51.930Z,14.79
2023-04-19T07:09:54.499Z,14.74
2023-04-19T07:12:57.231Z,14.57
2023-04-19T07:16:01.255Z,13.89
2023-04-19T07:19:03.921Z,14.21
2023-04-19T07:22:07.354Z,14.72
2023-04-19T07:25:11.011Z,15.20
2023-04-19T07:28:13.880Z,15.56
2023-04-19T07:31:18.404Z,15.86
2023-04-19T07:34:21.059Z,15.65
2023-04-19T07:37:23.810Z,15.74
2023-04-19T07:40:26.590Z,15.61
2023-04-19T07:43:30.960Z,15.52
2023-04-19T07:46:35.033Z,15.73
2023-04-19T07:49:38.490Z,15.99
2023-04-19T07:52:41.197Z,16.54
2023-04-19T07:55:43.718Z,17.03
2023-04-19T07:58:50.774Z,16.86
2023-04-19T08:02:00.965Z,16.17
2023-04-19T08:05:04.341Z,15.43
2023-04-19T08:08:07.042Z,15.79
2023-04-19T08:11:09.746Z,15.85
2023-04-19T08:14:22.181Z,16.18
2023-04-19T08:17:41.877Z,16.56
2023-04-19T08:20:46.553Z,17.49
2023-04-19T08:23:49.812Z,17.75
2023-04-19T08:26:54.724Z,17.75
2023-04-19T08:29:57.397Z,17.59
2023-04-19T08:33:01.825Z,17.29
2023-04-19T08:36:05.051Z,16.62
2023-04-19T08:39:14.721Z,16.97
2023-04-19T08:42:33.143Z,17.48
2023-04-19T08:45:39.183Z,17.28
2023-04-19T08:48:45.102Z,16.99
2023-04-19T08:51:49.352Z,17.27
2023-04-19T08:54:52.533Z,18.00
2023-04-19T08:57:55.254Z,17.80
2023-04-19T09:00:59.788Z,17.82
2023-04-19T09:04:21.697Z,17.40
2023-04-19T09:07:29.615Z,17.84
2023-04-19T09:10:32.481Z,18.54
2023-04-19T09:13:36.857Z,19.23
2023-04-19T09:16:39.545Z,19.77
2023-04-19T09:19:50.541Z,19.49
2023-04-19T09:23:04.851Z,18.88
2023-04-19T09:26:22.682Z,18.82
2023-04-19T09:29:26.994Z,18.72
2023-04-19T09:32:29.920Z,17.66
2023-04-19T09:35:44.368Z,17.69
2023-04-19T09:38:48.747Z,17.99
2023-04-19T09:41:52.765Z,18.14
2023-04-19T09:48:07.420Z,18.62
2023-04-19T09:51:14.458Z,18.79
2023-04-19T09:54:18.727Z,18.18
2023-04-19T09:57:21.359Z,18.32
2023-04-19T10:00:24.512Z,19.61
2023-04-19T10:03:30.398Z,19.97
2023-04-19T10:06:58.443Z,20.05
2023-04-19T10:10:11.706Z,20.07
2023-04-19T10:13:25.766Z,20.93
2023-04-19T10:16:31.581Z,20.09
2023-04-19T10:19:36.207Z,19.42
2023-04-19T10:22:40.393Z,20.20
2023-04-19T10:25:47.266Z,19.78
2023-04-19T10:28:49.885Z,20.07
2023-04-19T10:31:52.523Z,19.78
2023-04-19T10:34:55.352Z,19.46
2023-04-19T10:38:07.820Z,19.32
2023-04-19T10:41:16.511Z,18.46
2023-04-19T10:44:20.544Z,18.28
2023-04-19T10:47:44.481Z,18.10
2023-04-19T10:50:59.330Z,17.38
2023-04-19T10:54:04.521Z,16.52
2023-04-19T10:57:08.321Z,15.91
2023-04-19T11:00:21.114Z,16.36
2023-04-19T11:03:54.782Z,17.43
2023-04-19T11:07:02.634Z,17.97
2023-04-19T11:10:07.676Z,18.65
2023-04-19T11:13:10.245Z,18.70
2023-04-19T11:16:13.055Z,17.92
2023-04-19T11:19:16.673Z,16.62
2023-04-19T11:22:19.577Z,16.18
2023-04-19T11:25:23.687Z,15.72
2023-04-19T11:28:26.354Z,15.44
2023-04-19T11:31:29.423Z,15.17
2023-04-19T11:34:36.736Z,14.37
2023-04-19T11:37:40.550Z,14.70
2023-04-19T11:40:44.505Z,14.36
2023-04-19T11:43:48.470Z,14.27
2023-04-19T11:47:01.410Z,14.23
2023-04-19T11:50:33.145Z,14.23
2023-04-19T11:53:35.841Z,14.18
2023-04-19T11:56:58.955Z,14.46
2023-04-19T12:00:08.453Z,14.05
2023-04-19T12:03:11.743Z,13.64
2023-04-19T12:06:16.258Z,13.32
2023-04-19T12:09:24.068Z,13.02
2023-04-19T12:12:34.623Z,13.00
2023-04-19T12:15:43.667Z,12.91
2023-04-19T12:18:49.853Z,12.93
2023-04-19T12:21:52.656Z,12.79
2023-04-19T12:24:55.977Z,12.94
2023-04-19T12:28:00.290Z,12.52
2023-04-19T12:31:03.219Z,12.49
2023-04-19T12:34:05.919Z,12.50
2023-04-19T12:37:08.490Z,12.41
2023-04-19T12:40:12.416Z,12.28
2023-04-19T12:43:16.464Z,12.40
2023-04-19T12:46:19.262Z,12.55
2023-04-19T12:49:22.275Z,12.73
2023-04-19T12:52:25.302Z,12.89
2023-04-19T12:55:28.278Z,12.99
2023-04-19T12:58:32.316Z,13.04
2023-04-19T13:01:35.192Z,12.86
2023-04-19T13:04:37.948Z,12.82
2023-04-19T13:07:40.872Z,12.65
2023-04-19T13:10:43.501Z,12.63
2023-04-19T13:13:47.490Z,12.74
2023-04-19T13:16:50.263Z,12.65
2023-04-19T13:19:52.952Z,12.65
2023-04-19T13:22:55.834Z,12.73
2023-04-19T13:25:58.632Z,12.66
2023-04-19T13:29:02.648Z,12.94
2023-04-19T13:32:07.565Z,13.21
2023-04-19T13:35:10.991Z,13.43
2023-04-19T13:38:13.719Z,13.59
2023-04-19T13:41:16.341Z,13.78
2023-04-19T13:44:20.316Z,13.95
2023-04-19T13:47:23.026Z,13.84
2023-04-19T13:50:25.676Z,13.75
2023-04-19T13:53:29.535Z,13.79
2023-04-19T13:56:32.241Z,13.35
2023-04-19T13:59:36.343Z,13.66
2023-04-19T14:02:39.443Z,14.09
2023-04-19T14:05:42.199Z,14.65
2023-04-19T14:08:44.960Z,15.34
2023-04-19T14:11:48.893Z,16.24
2023-04-19T14:14:52.857Z,16.85
2023-04-19T14:17:55.707Z,17.21
2023-04-19T14:20:58.534Z,17.70
2023-04-19T14:24:01.428Z,18.63
2023-04-19T14:27:11.213Z,20.27
2023-04-19T14:30:16.157Z,21.60
2023-04-19T14:33:18.924Z,19.84
2023-04-19T14:36:21.609Z,21.68
2023-04-19T14:39:24.151Z,21.52
2023-04-19T14:42:26.859Z,20.88
2023-04-19T14:45:31.067Z,19.27
2023-04-19T14:48:33.790Z,18.19
2023-04-19T14:51:36.653Z,16.89
2023-04-19T14:54:39.362Z,15.66
2023-04-19T14:57:42.293Z,14.85
2023-04-19T15:00:46.451Z,14.53
2023-04-19T15:03:49.728Z,14.28
2023-04-19T15:06:52.547Z,14.29
2023-04-19T15:09:55.255Z,14.76
2023-04-19T15:12:57.972Z,15.31
2023-04-19T15:16:03.784Z,15.52
2023-04-19T15:19:07.498Z,16.01
2023-04-19T15:22:10.370Z,16.27
2023-04-19T15:25:12.996Z,16.85
2023-04-19T15:28:15.728Z,17.12
2023-04-19T15:31:19.904Z,16.70
2023-04-19T15:34:22.565Z,16.18
2023-04-19T15:37:25.579Z,16.84
2023-04-19T15:40:29.973Z,18.27
2023-04-19T15:43:32.634Z,19.71
2023-04-19T15:46:36.759Z,22.91
2023-04-19T15:49:40.600Z,29.13
2023-04-19T15:52:43.167Z,25.18
2023-04-19T15:55:46.924Z,23.17
2023-04-19T15:58:49.525Z,23.82
2023-04-19T16:01:53.621Z,23.57
2023-04-19T16:04:56.366Z,21.80
2023-04-19T16:08:03.492Z,20.39
2023-04-19T16:11:06.896Z,19.48
2023-04-19T16:14:09.403Z,20.08
2023-04-19T16:17:13.324Z,20.85
2023-04-19T16:20:15.896Z,19.85
2023-04-19T16:23:18.490Z,20.01
2023-04-19T16:26:22.169Z,23.25
2023-04-19T16:29:24.897Z,26.23
2023-04-19T16:32:29.048Z,26.68
2023-04-19T16:35:31.799Z,26.62
2023-04-19T16:38:34.428Z,25.83
2023-04-19T16:41:37.055Z,23.74
2023-04-19T16:44:39.599Z,22.18
2023-04-19T16:47:45.893Z,23.59
2023-04-19T16:50:49.703Z,24.81
2023-04-19T16:53:53.135Z,23.47
2023-04-19T16:56:55.763Z,22.05
2023-04-19T16:59:58.510Z,20.32
2023-04-19T17:03:02.675Z,19.76
2023-04-19T17:06:05.694Z,18.84
2023-04-19T17:09:08.355Z,17.77
2023-04-19T17:12:11.668Z,17.47
2023-04-19T17:15:14.307Z,17.32
2023-04-19T17:18:18.647Z,17.12
2023-04-19T17:21:21.256Z,17.02
2023-04-19T17:24:24.093Z,16.74
2023-04-19T17:27:26.612Z,16.27
2023-04-19T17:30:29.264Z,15.71
2023-04-19T17:33:33.278Z,15.36
2023-04-19T17:36:35.832Z,14.98
2023-04-19T17:39:38.316Z,14.69
2023-04-19T17:42:40.841Z,14.56
2023-04-19T17:45:43.457Z,14.28
2023-04-19T17:48:47.468Z,13.99
2023-04-19T17:51:50.192Z,13.71
2023-04-19T17:54:52.767Z,13.35
2023-04-19T17:57:55.563Z,13.10
2023-04-19T18:00:58.039Z,12.94
2023-04-19T18:04:02.052Z,12.81
2023-04-19T18:07:04.878Z,12.57
2023-04-19T18:10:08.284Z,12.30
2023-04-19T18:13:11.069Z,12.22
2023-04-19T18:16:13.909Z,12.14
2023-04-19T18:19:17.915Z,12.11
2023-04-19T18:22:20.853Z,12.00
2023-04-19T18:25:23.628Z,11.78
2023-04-19T18:28:26.239Z,11.78
2023-04-19T18:31:31.346Z,11.66
2023-04-19T18:34:35.746Z,11.58
2023-04-19T18:37:38.509Z,11.48
2023-04-19T18:40:41.284Z,11.38
2023-04-19T18:43:59.550Z,11.16
2023-04-19T18:47:07.113Z,10.97
2023-04-19T18:50:12.042Z,10.88
2023-04-19T18:53:14.684Z,10.74
2023-04-19T18:56:17.203Z,10.62
2023-04-19T18:59:21.033Z,10.45
2023-04-19T19:02:23.868Z,10.43
2023-04-19T19:05:28.740Z,10.30
2023-04-19T19:08:31.687Z,10.23
2023-04-19T19:11:52.021Z,10.05
2023-04-19T19:14:56.973Z,9.94
2023-04-19T19:17:59.540Z,9.79
2023-04-19T19:21:03.457Z,9.66
2023-04-19T19:24:06.709Z,9.52
2023-04-19T19:27:09.514Z,9.48
2023-04-19T19:30:12.997Z,9.55
2023-04-19T19:33:16.353Z,9.43
2023-04-19T19:36:20.452Z,9.14
2023-04-19T19:39:23.109Z,9.03
2023-04-19T19:42:25.783Z,8.98
2023-04-19T19:45:28.767Z,8.81
2023-04-19T19:48:36.949Z,8.59
2023-04-19T19:51:57.843Z,8.55
2023-04-19T19:55:01.863Z,8.41
2023-04-19T20:01:11.223Z,8.27
2023-04-19T20:04:14.043Z,8.14
2023-04-19T20:07:36.823Z,8.06
2023-04-19T20:10:42.901Z,8.12
2023-04-19T20:13:45.726Z,8.06
2023-04-19T20:16:48.701Z,7.78
2023-04-19T20:19:52.144Z,7.65
2023-04-19T20:22:56.178Z,7.63
2023-04-19T20:25:59.784Z,7.64
2023-04-19T20:29:02.674Z,7.66
2023-04-19T20:32:05.679Z,7.58
2023-04-19T20:35:11.958Z,7.51
2023-04-19T20:38:16.146Z,7.40
2023-04-19T20:41:19.291Z,7.23
2023-04-19T20:44:22.865Z,7.14
2023-04-19T20:47:25.698Z,7.06
2023-04-19T20:50:28.292Z,6.97
2023-04-19T20:53:32.212Z,7.02
2023-04-19T20:56:34.834Z,6.98
2023-04-19T20:59:37.376Z,6.90
2023-04-19T21:02:40.100Z,6.69
2023-04-19T21:05:42.786Z,6.65
2023-04-19T21:08:46.763Z,6.61
2023-04-19T21:11:49.442Z,6.54
2023-04-19T21:14:52.869Z,6.51
2023-04-19T21:17:55.471Z,6.59
2023-04-19T21:20:58.109Z,6.59
2023-04-19T21:24:02.089Z,6.57
2023-04-19T21:27:05.136Z,6.44
2023-04-19T21:30:09.183Z,6.44
2023-04-19T21:33:12.005Z,6.35
2023-04-19T21:36:14.563Z,6.23
2023-04-19T21:39:18.784Z,6.22
2023-04-19T21:42:22.148Z,6.24
2023-04-19T21:45:25.026Z,6.21
2023-04-19T21:48:27.671Z,6.18
2023-04-19T21:51:30.257Z,5.99
2023-04-19T21:54:34.859Z,6.02
2023-04-19T21:57:38.301Z,6.05
2023-04-19T22:00:41.245Z,6.11
2023-04-19T22:03:45.525Z,6.08
2023-04-19T22:06:48.251Z,6.11
2023-04-19T22:09:52.275Z,5.97
2023-04-19T22:12:58.675Z,5.91
2023-04-19T22:16:02.405Z,5.71
2023-04-19T22:19:05.357Z,5.82
2023-04-19T22:22:07.948Z,5.94
2023-04-19T22:25:12.030Z,5.78
2023-04-19T22:28:14.617Z,5.60
2023-04-19T22:31:17.120Z,5.75
2023-04-19T22:34:19.662Z,5.73
2023-04-19T22:37:22.251Z,5.68
2023-04-19T22:40:26.253Z,5.84
2023-04-19T22:43:28.877Z,5.89
2023-04-19T22:46:32.911Z,5.71
2023-04-19T22:49:35.568Z,5.65
2023-04-19T22:52:38.388Z,5.75
2023-04-19T22:55:42.732Z,5.76
2023-04-19T22:58:45.367Z,5.84
2023-04-19T23:01:48.053Z,5.87
2023-04-19T23:04:50.917Z,5.68
2023-04-19T23:07:53.457Z,5.53
2023-04-19T23:10:57.485Z,5.67
2023-04-19T23:14:00.032Z,5.82
2023-04-19T23:17:03.100Z,5.85
2023-04-19T23:20:09.442Z,5.77
2023-04-19T23:23:11.978Z,5.85
2023-04-19T23:26:15.994Z,5.93
2023-04-19T23:29:18.790Z,5.85
2023-04-19T23:32:21.623Z,5.82
2023-04-19T23:35:24.367Z,5.70
2023-04-19T23:38:26.928Z,5.47
2023-04-19T23:41:30.797Z,5.44
2023-04-19T23:44:33.189Z,5.52
2023-04-19T23:47:35.847Z,5.41
2023-04-19T23:50:38.327Z,5.23
2023-04-19T23:53:41.213Z,5.21
2023-04-19T23:56:45.359Z,5.14
2023-04-19T23:59:47.918Z,5.14
